• Join FlightAware (Why Join?)
  • Login
  • US Flag 
09:14AM EDT


 

Airport Tracker/Info


-or-


 

Live Flight TrackerFlight Track Log ✈ UCA3597 ✈ 28-Apr-2014 ✈ KBGM - KIAD

Flight Track Log - Related Links

Times and Time Zones

All times are in EDT time to prevent confusion due to time zone crossing. See the UCA3597 flight status page for this flight to view local times or setup timezone preferences in your user account.

Time Position Orientation Groundspeed Altitude Reporting Facility
EDT Latitude Longitude Course Direction KTS MPH feet Rate Location/Type
07:20PM 42.1842 -75.9706 197° South 155 178 2,800  Level New York Center
07:21PM 42.1333 -75.9917 197° South 207 238 3,800 1,200 Climbing New York Center
07:22PM 42.0872 -76.0439 220° Southwest 219 252 5,200 1,500 Climbing New York Center
07:23PM 42.0392 -76.0961 219° Southwest 225 259 6,800 1,440 Climbing New York Center
07:24PM 41.9914 -76.1394 214° Southwest 225 259 8,100 1,260 Climbing New York Center
07:25PM 41.9414 -76.1886 216° Southwest 225 259 9,400 780 Climbing New York Center
07:27PM 41.8325 -76.2911 215° Southwest 245 282 10,500 780 Climbing New York Center
07:28PM 41.7728 -76.3250 203° Southwest 251 289 11,900 1,200 Climbing New York Center
07:29PM 41.7147 -76.3592 204° Southwest 240 276 13,000 960 Climbing New York Center
07:30PM 41.6592 -76.3933 205° Southwest 240 276 13,900 420 Climbing New York Center
07:31PM 41.5928 -76.4319 204° Southwest 253 291 13,900  Level New York Center
07:32PM 41.5136 -76.4753 202° Southwest 270 311 13,900  Level New York Center
07:33PM 41.4450 -76.5136 203° Southwest 275 316 13,900  Level New York Center
07:34PM 41.3764 -76.5522 203° Southwest 275 316 13,900  Level New York Center
07:35PM 41.3144 -76.5856 202° Southwest 275 316 13,900  Level New York Center
07:36PM 41.2394 -76.6286 203° Southwest 275 316 13,900  Level New York Center
07:37PM 41.1836 -76.6625 205° Southwest 275 316 13,900  Level New York Center
07:38PM 41.1086 -76.7056 203° Southwest 275 316 13,900  Level New York Center
07:39PM 41.0378 -76.7461 203° Southwest 275 316 13,900  Level New York Center
07:40PM 40.9692 -76.7842 203° Southwest 275 316 13,900  Level New York Center
07:41PM 40.8961 -76.8269 204° Southwest 275 316 13,900  Level New York Center
07:42PM 40.8317 -76.8625 203° Southwest 275 316 13,900  Level New York Center
07:43PM 40.7550 -76.8967 199° South 270 311 13,900  Level New York Center
07:44PM 40.6894 -76.9156 192° South 270 311 13,900  Level New York Center
07:45PM 40.6131 -76.9417 195° South 265 305 14,000  Climbing New York Center
07:46PM 40.5411 -76.9622 192° South 265 305 14,000  Level New York Center
07:47PM 40.4708 -76.9861 194° South 265 305 14,000  Level New York Center
07:48PM 40.4011 -77.0044 191° South 265 305 14,000 -600 Level New York Center
07:50PM 40.2167 -77.0667 194° South 274 315 12,000 -840 Descending Potomac TRACON
07:51PM 40.1500 -77.0833 191° South 275 316 11,200 -1,020 Descending Potomac TRACON
07:52PM 40.0833 -77.1000 191° South 275 316 10,200 -1,080 Descending Potomac TRACON
07:53PM 40.0167 -77.1333 201° Southwest 268 308 9,200 -600 Descending Potomac TRACON
07:54PM 39.9333 -77.1500 189° South 259 298 9,000 -180 Descending Potomac TRACON
07:55PM 39.8833 -77.1833 207° Southwest 248 285 8,900 -540 Descending Potomac TRACON
07:56PM 39.8000 -77.2333 205° Southwest 258 297 7,900 -900 Descending Potomac TRACON
07:57PM 39.7500 -77.2500 194° South 258 297 7,200 -780 Descending Potomac TRACON
07:58PM 39.6667 -77.2833 197° South 255 293 6,400 -720 Descending Potomac TRACON
07:59PM 39.6000 -77.3000 191° South 250 288 5,700 -720 Descending Potomac TRACON
08:00PM 39.5333 -77.3333 201° Southwest 247 284 5,100 -720 Descending Potomac TRACON
08:01PM 39.4667 -77.3500 191° South 239 275 4,300 -540 Descending Potomac TRACON
08:02PM 39.4000 -77.3667 191° South 239 275 4,000 -180 Descending Potomac TRACON
08:03PM 39.3500 -77.3833 194° South 233 268 4,000 -240 Level Potomac TRACON
08:04PM 39.2833 -77.4167 201° Southwest 235 270 3,600 -480 Descending Potomac TRACON
08:05PM 39.2167 -77.4333 191° South 235 270 3,000 -300 Descending Potomac TRACON
08:06PM 39.1500 -77.4333 180° South 231 266 3,000 -120 Level Potomac TRACON
08:07PM 39.0833 -77.4333 180° South 226 260 2,800 -600 Descending Potomac TRACON
08:08PM 39.0333 -77.4333 180° South 185 213 1,800 -960 Descending Potomac TRACON
08:09PM 39.0000 -77.4333 180° South 129 148 1,000 -840 Descending Potomac TRACON
08:11PM 38.9474 -77.4599 180° South  Level Estimated
08:18PM 38.9474 -77.4599 349° North  Level Estimated
08:19PM 38.9474 -77.4599 349° North  Level Estimated